Clair avec quelques nuages bas et cirrus
Variable avec quelques cirrus et quelques nuages d'orage possibles
Variable avec quelques cirrus et quelques nuages d'orage possibles
Variable avec quelques nuages d'orage possibles
Variable avec quelques nuages d'orage possibles
Variable avec quelques nuages d'orage possibles
Variable avec quelques nuages d'orage possibles
Variable avec risques d'averses
Partiellement nuageux
(°C)
19°
19°
18°
18°
18°
18°
18°
18°
18°
18°
18°
18°
19°
19°
19°
19°
20°
20°
(°C)
18°
17°
17°
16°
16°
16°
16°
16°
17°
ONO
O
O
O
O
O
O
ONO
NO
(km/h)
13-30
13-29
13-29
14-27
15-30
16-30
18-34
19-35
19-37
(mm)
0
0
0
0
0
0
0
0.7
0
(%)
79
62
44
34
30
24
48
53
41

Élévation du soleil

/ -16.5°
sun-icon
UV 4
05:19
20:58
Gibbeuse décroissante (222°)
22:42
08:56

METAR pour 50.1°N 14.27°E (LKPR)

Heure Conditions Température/
Point de rosée
Vent Visibilité Météo Nuages Pression Changement Brut
VFR 18°C / 14°C 270º 6kt 9700m - Clouds and Visibility OK 1016 No Significant change LKPR 240030Z 27006KT CAVOK 18/14 Q1016 NOSIG
VFR 19°C / 14°C 280º 5kt 9700m - Clouds and Visibility OK 1016 No Significant change LKPR 240000Z 28005KT CAVOK 19/14 Q1016 NOSIG
VFR 19°C / 14°C 310º 5kt 9700m - Scattered Clouds 4800ft 1016 No Significant change LKPR 232330Z 31005KT 9999 SCT048 19/14 Q1016 NOSIG
VFR 19°C / 14°C 290º 6kt 9700m - Clouds and Visibility OK 1016 No Significant change LKPR 232300Z 29006KT CAVOK 19/14 Q1016 NOSIG
VFR 19°C / 14°C 290º 7kt 9700m - Clouds and Visibility OK 1016 No Significant change LKPR 232230Z 29007KT CAVOK 19/14 Q1016 NOSIG
VFR 20°C / 14°C 300º 8kt 9700m - Clouds and Visibility OK 1017 No Significant change LKPR 232200Z 30008KT CAVOK 20/14 Q1017 NOSIG
VFR 20°C / 12°C 240º 8kt 9700m - Clouds and Visibility OK 1016 No Significant change LKPR 232130Z 24008KT CAVOK 20/12 Q1016 NOSIG
VFR 20°C / 12°C 230º 8kt 9700m - Clouds and Visibility OK 1016 No Significant change LKPR 232100Z 23008KT CAVOK 20/12 Q1016 NOSIG
VFR 20°C / 12°C 240º 10kt 9700m - Clouds and Visibility OK 1016 No Significant change LKPR 232030Z 24010KT CAVOK 20/12 Q1016 NOSIG
VFR 19°C / 12°C 220º variable 110º to 260º 6kt 9700m - Clouds and Visibility OK 1016 No Significant change LKPR 232000Z 22006KT 110V260 CAVOK 19/12 Q1016 NOSIG
VFR 21°C / 12°C 240º 9kt 9700m - Clouds and Visibility OK 1016 No Significant change LKPR 231930Z 24009KT CAVOK 21/12 Q1016 NOSIG
VFR 22°C / 12°C 240º 11kt 9700m - Clouds and Visibility OK 1016 No Significant change LKPR 231900Z 24011KT CAVOK 22/12 Q1016 NOSIG
VFR 23°C / 12°C 230º 13kt 9700m - Clouds and Visibility OK 1016 No Significant change LKPR 231830Z 23013KT CAVOK 23/12 Q1016 NOSIG
VFR 24°C / 11°C 240º 13kt 9700m - Clouds and Visibility OK 1016 No Significant change LKPR 231800Z 24013KT CAVOK 24/11 Q1016 NOSIG
VFR 25°C / 11°C 240º 12kt 9700m - Clouds and Visibility OK 1016 No Significant change LKPR 231730Z 24012KT CAVOK 25/11 Q1016 NOSIG
VFR 26°C / 12°C 240º 12kt 9700m - Clouds and Visibility OK 1016 No Significant change LKPR 231700Z 24012KT CAVOK 26/12 Q1016 NOSIG
VFR 26°C / 13°C 240º 16kt 9700m - Clouds and Visibility OK 1015 No Significant change LKPR 231630Z 24016KT CAVOK 26/13 Q1015 NOSIG
VFR 27°C / 12°C 240º 15kt 9700m - Clouds and Visibility OK 1015 No Significant change LKPR 231600Z 24015KT CAVOK 27/12 Q1015 NOSIG
VFR 27°C / 13°C 240º variable 210º to 270º 14kt 9700m - Clouds and Visibility OK 1016 No Significant change LKPR 231530Z 24014KT 210V270 CAVOK 27/13 Q1016 NOSIG
VFR 28°C / 14°C 240º 13kt 9700m - Clouds and Visibility OK 1016 No Significant change LKPR 231500Z 24013KT CAVOK 28/14 Q1016 NOSIG
VFR 26°C / 14°C 200º variable 140º to 230º 8kt 9700m - Clouds and Visibility OK 1016 No Significant change LKPR 231430Z 20008KT 140V230 CAVOK 26/14 Q1016 NOSIG
VFR 25°C / 14°C 200º variable 110º to 230º 8kt 9700m - Clouds and Visibility OK 1017 No Significant change LKPR 231400Z 20008KT 110V230 CAVOK 25/14 Q1017 NOSIG
VFR 26°C / 14°C 180º variable 130º to 220º 8kt 9700m - Clouds and Visibility OK 1017 No Significant change LKPR 231330Z 18008KT 130V220 CAVOK 26/14 Q1017 NOSIG
VFR 27°C / 14°C 5kt 9700m - Clouds and Visibility OK 1017 No Significant change LKPR 231300Z VRB05KT CAVOK 27/14 Q1017 NOSIG

VFR

18°C / 14°C

[Plus]
Vent 270º 6kt
Visibilité 9700m
Météo -
Nuages Clouds and Visibility OK
Pression 1016
Changement No Significant change
Brut LKPR 240030Z 27006KT CAVOK 18/14 Q1016 NOSIG

VFR

19°C / 14°C

[Plus]
Vent 280º 5kt
Visibilité 9700m
Météo -
Nuages Clouds and Visibility OK
Pression 1016
Changement No Significant change
Brut LKPR 240000Z 28005KT CAVOK 19/14 Q1016 NOSIG

VFR

19°C / 14°C

[Plus]
Vent 310º 5kt
Visibilité 9700m
Météo -
Nuages Scattered Clouds 4800ft
Pression 1016
Changement No Significant change
Brut LKPR 232330Z 31005KT 9999 SCT048 19/14 Q1016 NOSIG

VFR

19°C / 14°C

[Plus]
Vent 290º 6kt
Visibilité 9700m
Météo -
Nuages Clouds and Visibility OK
Pression 1016
Changement No Significant change
Brut LKPR 232300Z 29006KT CAVOK 19/14 Q1016 NOSIG

VFR

19°C / 14°C

[Plus]
Vent 290º 7kt
Visibilité 9700m
Météo -
Nuages Clouds and Visibility OK
Pression 1016
Changement No Significant change
Brut LKPR 232230Z 29007KT CAVOK 19/14 Q1016 NOSIG

VFR

20°C / 14°C

[Plus]
Vent 300º 8kt
Visibilité 9700m
Météo -
Nuages Clouds and Visibility OK
Pression 1017
Changement No Significant change
Brut LKPR 232200Z 30008KT CAVOK 20/14 Q1017 NOSIG

VFR

20°C / 12°C

[Plus]
Vent 240º 8kt
Visibilité 9700m
Météo -
Nuages Clouds and Visibility OK
Pression 1016
Changement No Significant change
Brut LKPR 232130Z 24008KT CAVOK 20/12 Q1016 NOSIG

VFR

20°C / 12°C

[Plus]
Vent 230º 8kt
Visibilité 9700m
Météo -
Nuages Clouds and Visibility OK
Pression 1016
Changement No Significant change
Brut LKPR 232100Z 23008KT CAVOK 20/12 Q1016 NOSIG

VFR

20°C / 12°C

[Plus]
Vent 240º 10kt
Visibilité 9700m
Météo -
Nuages Clouds and Visibility OK
Pression 1016
Changement No Significant change
Brut LKPR 232030Z 24010KT CAVOK 20/12 Q1016 NOSIG

VFR

19°C / 12°C

[Plus]
Vent 220º variable 110º to 260º 6kt
Visibilité 9700m
Météo -
Nuages Clouds and Visibility OK
Pression 1016
Changement No Significant change
Brut LKPR 232000Z 22006KT 110V260 CAVOK 19/12 Q1016 NOSIG

VFR

21°C / 12°C

[Plus]
Vent 240º 9kt
Visibilité 9700m
Météo -
Nuages Clouds and Visibility OK
Pression 1016
Changement No Significant change
Brut LKPR 231930Z 24009KT CAVOK 21/12 Q1016 NOSIG

VFR

22°C / 12°C

[Plus]
Vent 240º 11kt
Visibilité 9700m
Météo -
Nuages Clouds and Visibility OK
Pression 1016
Changement No Significant change
Brut LKPR 231900Z 24011KT CAVOK 22/12 Q1016 NOSIG

VFR

23°C / 12°C

[Plus]
Vent 230º 13kt
Visibilité 9700m
Météo -
Nuages Clouds and Visibility OK
Pression 1016
Changement No Significant change
Brut LKPR 231830Z 23013KT CAVOK 23/12 Q1016 NOSIG

VFR

24°C / 11°C

[Plus]
Vent 240º 13kt
Visibilité 9700m
Météo -
Nuages Clouds and Visibility OK
Pression 1016
Changement No Significant change
Brut LKPR 231800Z 24013KT CAVOK 24/11 Q1016 NOSIG

VFR

25°C / 11°C

[Plus]
Vent 240º 12kt
Visibilité 9700m
Météo -
Nuages Clouds and Visibility OK
Pression 1016
Changement No Significant change
Brut LKPR 231730Z 24012KT CAVOK 25/11 Q1016 NOSIG

VFR

26°C / 12°C

[Plus]
Vent 240º 12kt
Visibilité 9700m
Météo -
Nuages Clouds and Visibility OK
Pression 1016
Changement No Significant change
Brut LKPR 231700Z 24012KT CAVOK 26/12 Q1016 NOSIG

VFR

26°C / 13°C

[Plus]
Vent 240º 16kt
Visibilité 9700m
Météo -
Nuages Clouds and Visibility OK
Pression 1015
Changement No Significant change
Brut LKPR 231630Z 24016KT CAVOK 26/13 Q1015 NOSIG

VFR

27°C / 12°C

[Plus]
Vent 240º 15kt
Visibilité 9700m
Météo -
Nuages Clouds and Visibility OK
Pression 1015
Changement No Significant change
Brut LKPR 231600Z 24015KT CAVOK 27/12 Q1015 NOSIG

VFR

27°C / 13°C

[Plus]
Vent 240º variable 210º to 270º 14kt
Visibilité 9700m
Météo -
Nuages Clouds and Visibility OK
Pression 1016
Changement No Significant change
Brut LKPR 231530Z 24014KT 210V270 CAVOK 27/13 Q1016 NOSIG

VFR

28°C / 14°C

[Plus]
Vent 240º 13kt
Visibilité 9700m
Météo -
Nuages Clouds and Visibility OK
Pression 1016
Changement No Significant change
Brut LKPR 231500Z 24013KT CAVOK 28/14 Q1016 NOSIG

VFR

26°C / 14°C

[Plus]
Vent 200º variable 140º to 230º 8kt
Visibilité 9700m
Météo -
Nuages Clouds and Visibility OK
Pression 1016
Changement No Significant change
Brut LKPR 231430Z 20008KT 140V230 CAVOK 26/14 Q1016 NOSIG

VFR

25°C / 14°C

[Plus]
Vent 200º variable 110º to 230º 8kt
Visibilité 9700m
Météo -
Nuages Clouds and Visibility OK
Pression 1017
Changement No Significant change
Brut LKPR 231400Z 20008KT 110V230 CAVOK 25/14 Q1017 NOSIG

VFR

26°C / 14°C

[Plus]
Vent 180º variable 130º to 220º 8kt
Visibilité 9700m
Météo -
Nuages Clouds and Visibility OK
Pression 1017
Changement No Significant change
Brut LKPR 231330Z 18008KT 130V220 CAVOK 26/14 Q1017 NOSIG

VFR

27°C / 14°C

[Plus]
Vent 5kt
Visibilité 9700m
Météo -
Nuages Clouds and Visibility OK
Pression 1017
Changement No Significant change
Brut LKPR 231300Z VRB05KT CAVOK 27/14 Q1017 NOSIG

TAF pour 50.1°N 14.27°E (LKPR)

From till


From till Wind 270º 12kt. Visibility 9700m. Nil Significant Cloud.
Becoming from till
Temporarly from till Visibility 7000m. Showers Rain . Scattered Clouds 4000ft. Broken Clouds 4500ft.

Brut: TAF LKPR 232300Z 2400/2506 27012KT CAVOK BECMG 2406/2408 33012KT TEMPO 2409/2417 7000 SHRA SCT040TCU BKN045

Radar et prévision de précipitation à court terme pour 50.1°N 14.27°E

Bruine
Légère
Modéré
Fort
Très fort
Grêle

Le marqueur est placé sur 50.1°N 14.27°E. Cette animation montre le radar des précipitations pour la plage horaire sélectionnée, ainsi qu'une 2h prévision. Les croix orange indiquent la foudre. Données fournies par nowcast.de (disponibles aux États-Unis, en Europe et en Australie). Une bruine ou une légère chute de neige peut être invisible pour le radar. L'intensité des précipitations est codée par couleur, allant du turquoise au rouge.

Les images satellites et les pluies actuelles pour 50.1°N 14.27°E

Le marqueur est placé sur 50.1°N 14.27°E. [Plus]

L'image satellite en temps réel combine la lumière visible pendant la journée et le rayonnement infrarouge pendant la nuit. La nuit, l'image n'est pas sombre car le rayonnement infrarouge permet de détecter les différences de température. Malheureusement, les nuages bas et le brouillard sont difficiles à distinguer des températures au sol et peuvent donc être presque invisibles pendant la nuit. Les images des satellites Météosat pour l'Europe sont mises à jour en temps réel toutes les 5 minutes. Les images GOES-16/GOES-17 (Amérique du Nord et du Sud) et Himawari (Asie) sont mises à jour toutes les 10 minutes.

Les précipitations sont estimées à partir de radars et de satellites. Les estimations des précipitations par satellite sont moins précises la nuit que le jour.

© 2024 meteoblue, NOAA Satellites GOES-16 and EUMETSAT. Données de foudre fournies par nowcast.

Retour vers le haut
×
Salut,
Il semble que vous utilisiez un logiciel antipub.

La publicité est essentielle pour maintenir notre site web gratuit avec des détails et précision uniques.

Veuillez mettre www.meteoblue.com sur la liste blanche de votre bloqueur de publicité ou envisager d'acheter l'un de nos produits :

Vous avez déjà un abonnement ?
Dans ce cas, veuillez vous connecter.